Thursday, April 24, 2014
16:11 UTC
  |  Log In   |  Register Free
Airport Search:

Faribault Municipal Airport
(KFBL)

Faribault Municipal Airport Diagram
No Airport Diagram Available

FAA data valid effective April 3, 2014 until May 29, 2014 (unless otherwise noted).

 
 
 
 
 
 
 
 
 
 
 
 
 
 

Current Aviation Weather for Faribault Municipal Airport (KFBL)

The most recent METAR observation for KFBL was updated at: 1554 UTC
METAR Summary (Translated METAR)
KFBL
241554Z AUTO 11009G14KT 4SM -RA OVC012 07/03 A2972 RMK AO2 P0001
KOWA
(12.5 nm SE from KFBL)
241554Z AUTO 12011KT 7SM -RA SCT012 OVC030 06/04 A2970 RMK AO2 P0001
TAF
No TAF information found within 50 nm of KFBL
  Airport Weather Conditions for KFBL

 Current Weather at FBL
45° F
Drizzle
Southeast winds at 10.4 mph
FBL NOAA Radar

Pressure: 29.73 in
Humidity: 81%
Wind: Southeast at 10.4 MPH (9 KT)
Dew Point: 39.2°F
Visibility: 7.00 mi


Airport Weather Forecast for KFBL

Translated METAR and TAF for KFBL
Translated METAR for KFBL (1611 UTC 24 April 2014)
found at http://aviationweather.gov/adds/metars/
 
METAR text: KFBL 241554Z AUTO 11009G14KT 4SM -RA OVC012 07/03 A2972 RMK AO2 P0001
Conditions at: KFBL (FARIBAULT MUNI , MN, US) observed 1554 UTC 24 April 2014
Temperature: 7.0°C (45°F)
Dewpoint: 3.0°C (37°F) [RH = 76%]
Pressure (altimeter): 29.72 inches Hg (1006.5 mb)
Winds: from the ESE (110 degrees) at 10 MPH (9 knots; 4.7 m/s)
gusting to 16 MPH (14 knots; 7.3 m/s)
Visibility: 4 miles (6 km)
Ceiling: 1200 feet AGL
Clouds: overcast cloud deck at 1200 feet AGL
Weather: -RA  (light rain)
Translated TAF for KFBL

There is no translated TAF available for this airport

Find All Airport Services Find A Hotel Find A Rental Car Find A Golf Course Find A Restaurant $100 Hamburger



FBO's on the Field
FBO Company Facility Photos Services Transportation Aviation Fuel Prices: Prices include tax
Catering Weather Repair Courtesy Rental Type 100LL JetA JetA+ MOGAS 8087
 
Quality Aviation

This FBO has not yet been rated
FS:Independent
Last Updated: Mar-25
Login to update fuel prices
SS:
Contact Quality AviationMore FBO Information
 
Add another FBO Facility Photos Catering Weather Repair Courtesy Rental Type 100LL JetA JetA+ MOGAS 8087
Services Transportation Aviation Fuel Prices: Prices include tax


GlobalAir.com Airport Resource Center model-print
model-print
model-print
model-print